createdAt,value
2017-06-26T00:02:01.961Z,1.83
2017-06-26T00:04:30.151Z,1.63
2017-06-26T00:06:57.584Z,1.60
2017-06-26T00:09:25.781Z,1.50
2017-06-26T00:11:53.203Z,1.87
2017-06-26T00:14:21.400Z,1.97
2017-06-26T00:16:49.587Z,1.77
2017-06-26T00:19:17.006Z,1.80
2017-06-26T00:21:44.442Z,1.73
2017-06-26T00:24:11.864Z,1.80
2017-06-26T00:26:39.293Z,1.70
2017-06-26T00:29:07.491Z,2.10
2017-06-26T00:31:34.911Z,1.60
2017-06-26T00:34:03.095Z,2.17
2017-06-26T00:36:31.355Z,1.80
2017-06-26T00:38:58.783Z,2.30
2017-06-26T00:41:26.218Z,1.47
2017-06-26T00:43:53.640Z,1.80
2017-06-26T00:46:21.832Z,1.60
2017-06-26T00:48:49.260Z,1.97
2017-06-26T00:51:16.683Z,2.67
2017-06-26T00:53:44.103Z,2.10
2017-06-26T00:56:11.543Z,1.83
2017-06-26T00:58:39.736Z,2.00
2017-06-26T01:01:07.155Z,2.20
2017-06-26T01:03:34.588Z,2.47
2017-06-26T01:06:02.011Z,2.10
2017-06-26T01:08:29.444Z,2.30
2017-06-26T01:10:57.632Z,1.80
2017-06-26T01:13:25.061Z,1.70
2017-06-26T01:15:53.256Z,1.70
2017-06-26T01:18:20.689Z,2.07
2017-06-26T01:20:48.109Z,1.80
2017-06-26T01:23:15.531Z,2.20
2017-06-26T01:25:42.957Z,1.70
2017-06-26T01:28:10.387Z,2.13
2017-06-26T01:30:37.803Z,2.10
2017-06-26T01:33:05.232Z,2.03
2017-06-26T01:35:32.651Z,2.30
2017-06-26T01:38:00.078Z,1.90
2017-06-26T01:40:27.501Z,2.10
2017-06-26T01:42:54.932Z,1.83
2017-06-26T01:45:22.351Z,1.87
2017-06-26T01:47:49.800Z,2.03
2017-06-26T01:50:17.224Z,2.00
2017-06-26T01:52:45.407Z,2.23
2017-06-26T01:55:13.609Z,2.10
2017-06-26T01:57:41.048Z,1.77
2017-06-26T02:00:08.480Z,2.50
2017-06-26T02:02:35.941Z,1.90
2017-06-26T02:05:03.372Z,1.67
2017-06-26T02:07:30.796Z,2.40
2017-06-26T02:09:58.224Z,2.23
2017-06-26T02:12:26.415Z,2.13
2017-06-26T02:14:53.859Z,2.00
2017-06-26T02:17:22.039Z,2.20
2017-06-26T02:19:49.483Z,2.20
2017-06-26T02:22:16.912Z,2.70
2017-06-26T02:24:44.341Z,2.77
2017-06-26T02:27:11.767Z,2.70
2017-06-26T02:29:39.206Z,2.70
2017-06-26T02:32:06.625Z,2.50
2017-06-26T02:34:34.062Z,2.53
2017-06-26T02:37:01.484Z,2.50
2017-06-26T02:39:28.920Z,2.17
2017-06-26T02:41:56.341Z,2.60
2017-06-26T02:44:23.775Z,3.47
2017-06-26T02:46:51.204Z,2.93
2017-06-26T02:49:19.395Z,3.10
2017-06-26T02:51:46.839Z,3.90
2017-06-26T02:54:15.032Z,3.10
2017-06-26T02:56:42.471Z,3.37
2017-06-26T02:59:10.660Z,3.10
2017-06-26T03:01:38.092Z,3.20
2017-06-26T03:04:06.285Z,2.70
2017-06-26T03:06:33.720Z,2.97
2017-06-26T03:09:01.916Z,3.30
2017-06-26T03:11:41.229Z,2.73
2017-06-26T03:14:09.412Z,3.47
2017-06-26T03:16:37.614Z,3.30
2017-06-26T03:19:05.036Z,3.30
2017-06-26T03:21:33.237Z,3.40
2017-06-26T03:24:00.661Z,3.07
2017-06-26T03:26:28.860Z,3.13
2017-06-26T03:28:56.293Z,3.13
2017-06-26T03:31:23.719Z,3.07
2017-06-26T03:33:51.150Z,3.50
2017-06-26T03:36:18.575Z,2.93
2017-06-26T03:38:46.771Z,3.63
2017-06-26T03:41:14.208Z,3.43
2017-06-26T03:43:42.400Z,3.47
2017-06-26T03:46:09.832Z,3.13
2017-06-26T03:48:38.036Z,3.30
2017-06-26T03:51:05.465Z,3.83
2017-06-26T03:53:33.659Z,3.07
2017-06-26T03:56:01.080Z,2.93
2017-06-26T03:58:28.515Z,4.07
2017-06-26T04:00:55.971Z,3.10
2017-06-26T04:03:23.408Z,3.77
2017-06-26T04:05:50.829Z,3.13
2017-06-26T04:08:19.028Z,3.13
2017-06-26T04:10:46.455Z,2.90
2017-06-26T04:13:14.655Z,3.60
2017-06-26T04:15:42.085Z,3.97
2017-06-26T04:18:10.596Z,3.57
2017-06-26T04:20:38.024Z,3.07
2017-06-26T04:23:06.224Z,4.30
2017-06-26T04:25:33.647Z,3.07
2017-06-26T04:28:01.857Z,3.70
2017-06-26T04:30:29.287Z,3.90
2017-06-26T04:32:57.502Z,3.17
2017-06-26T04:35:24.932Z,3.50
2017-06-26T04:37:52.355Z,3.50
2017-06-26T04:40:19.788Z,3.40
2017-06-26T04:42:47.263Z,3.33
2017-06-26T04:45:14.700Z,3.00
2017-06-26T04:47:42.119Z,3.40
2017-06-26T04:50:09.552Z,3.27
2017-06-26T04:52:37.748Z,3.90
2017-06-26T04:55:05.181Z,2.80
2017-06-26T04:57:33.385Z,3.37
2017-06-26T05:00:00.821Z,2.67
2017-06-26T05:02:29.007Z,2.87
2017-06-26T05:04:56.535Z,3.00
2017-06-26T05:07:23.956Z,3.70
2017-06-26T05:09:51.404Z,3.07
2017-06-26T05:12:18.825Z,2.57
2017-06-26T05:14:47.042Z,3.10
2017-06-26T05:17:14.448Z,3.73
2017-06-26T05:19:42.648Z,3.50
2017-06-26T05:22:10.079Z,2.97
2017-06-26T05:24:38.275Z,3.10
2017-06-26T05:27:05.699Z,3.00
2017-06-26T05:29:33.909Z,3.20
2017-06-26T05:32:01.328Z,3.40
2017-06-26T05:34:28.763Z,3.70
2017-06-26T05:36:56.197Z,3.07
2017-06-26T05:39:23.624Z,4.00
2017-06-26T05:41:51.055Z,2.83
2017-06-26T05:44:18.479Z,2.83
2017-06-26T05:46:45.976Z,3.50
2017-06-26T05:49:14.171Z,2.57
2017-06-26T05:51:41.601Z,2.70
2017-06-26T05:54:09.024Z,2.83
2017-06-26T05:56:36.466Z,4.20
2017-06-26T05:59:03.892Z,3.07
2017-06-26T06:01:31.329Z,3.43
2017-06-26T06:03:58.754Z,3.60
2017-06-26T06:06:26.196Z,2.30
2017-06-26T06:08:53.632Z,2.20
2017-06-26T06:11:21.059Z,2.40
2017-06-26T06:13:49.397Z,2.43
2017-06-26T06:16:16.839Z,2.80
2017-06-26T06:18:44.268Z,2.20
2017-06-26T06:21:11.701Z,2.27
2017-06-26T06:23:39.125Z,3.13
2017-06-26T06:26:06.560Z,2.40
2017-06-26T06:28:33.989Z,2.20
2017-06-26T06:31:01.415Z,2.40
2017-06-26T06:33:28.852Z,2.47
2017-06-26T06:35:56.276Z,2.80
2017-06-26T06:38:23.709Z,2.27
2017-06-26T06:40:51.132Z,2.57
2017-06-26T06:43:18.563Z,1.90
2017-06-26T06:45:45.984Z,2.00
2017-06-26T06:48:13.412Z,1.70
2017-06-26T06:50:40.838Z,2.10
2017-06-26T06:53:08.419Z,2.67
2017-06-26T06:55:35.841Z,2.40
2017-06-26T06:58:03.275Z,1.90
2017-06-26T07:00:30.695Z,1.80
2017-06-26T07:02:58.133Z,2.27
2017-06-26T07:05:25.553Z,2.10
2017-06-26T07:07:52.983Z,2.50
2017-06-26T07:10:20.424Z,2.33
2017-06-26T07:12:47.860Z,1.53
2017-06-26T07:15:15.283Z,1.97
2017-06-26T07:17:42.711Z,2.77
2017-06-26T07:20:10.140Z,2.00
2017-06-26T07:22:37.568Z,1.70
2017-06-26T07:25:05.004Z,2.43
2017-06-26T07:27:32.428Z,1.90
2017-06-26T07:30:00.628Z,2.50
2017-06-26T07:32:28.053Z,2.30
2017-06-26T07:34:55.496Z,2.20
2017-06-26T07:37:22.911Z,1.57
2017-06-26T07:39:50.343Z,1.67
2017-06-26T07:42:18.544Z,1.50
2017-06-26T07:44:45.964Z,1.67
2017-06-26T07:47:13.394Z,1.37
2017-06-26T07:49:40.840Z,1.90
2017-06-26T07:52:08.264Z,1.13
2017-06-26T07:54:35.695Z,1.73
2017-06-26T07:57:03.892Z,2.30
2017-06-26T07:59:31.323Z,1.20
2017-06-26T08:01:59.519Z,1.60
2017-06-26T08:04:26.951Z,1.60
2017-06-26T08:06:55.146Z,1.70
2017-06-26T08:09:22.573Z,1.77
2017-06-26T08:11:50.000Z,1.67
2017-06-26T08:14:17.428Z,1.73
2017-06-26T08:16:44.851Z,1.00
2017-06-26T08:19:13.045Z,1.40
2017-06-26T08:21:40.476Z,1.67
2017-06-26T08:24:08.472Z,2.07
2017-06-26T08:26:35.904Z,2.07
2017-06-26T08:29:03.328Z,1.33
2017-06-26T08:31:30.767Z,1.83
2017-06-26T08:33:58.198Z,1.30
2017-06-26T08:36:25.632Z,1.77
2017-06-26T08:38:53.056Z,1.50
2017-06-26T08:41:20.493Z,1.50
2017-06-26T08:43:47.922Z,1.20
2017-06-26T08:46:15.351Z,1.50
2017-06-26T08:48:42.776Z,1.40
2017-06-26T08:51:10.218Z,1.20
2017-06-26T08:53:37.648Z,1.50
2017-06-26T08:56:05.836Z,1.20
2017-06-26T08:58:33.269Z,1.33
2017-06-26T09:01:01.477Z,1.50
2017-06-26T09:03:28.901Z,1.20
2017-06-26T09:05:57.111Z,1.23
2017-06-26T09:08:24.536Z,1.20
2017-06-26T09:10:51.961Z,0.90
2017-06-26T09:13:19.392Z,1.23
2017-06-26T09:15:46.820Z,1.30
2017-06-26T09:18:14.247Z,1.00
2017-06-26T09:20:42.444Z,1.10
2017-06-26T09:23:09.872Z,1.20
2017-06-26T09:25:38.072Z,1.67
2017-06-26T09:28:05.508Z,1.37
2017-06-26T09:30:32.936Z,1.10
2017-06-26T09:33:00.372Z,1.13
2017-06-26T09:35:27.808Z,1.40
2017-06-26T09:37:55.239Z,1.33
2017-06-26T09:40:22.663Z,1.53
2017-06-26T09:42:50.108Z,1.47
2017-06-26T09:45:17.533Z,0.90
2017-06-26T09:47:44.964Z,1.20
2017-06-26T09:50:13.164Z,1.10
2017-06-26T09:52:40.591Z,1.13
2017-06-26T09:55:08.784Z,1.20
2017-06-26T09:57:36.217Z,1.10
2017-06-26T10:00:04.415Z,1.03
2017-06-26T10:02:31.847Z,0.90
2017-06-26T10:04:59.309Z,0.80
2017-06-26T10:07:26.720Z,1.00
2017-06-26T10:09:54.152Z,1.20
2017-06-26T10:12:21.579Z,1.03
2017-06-26T10:14:49.788Z,1.20
2017-06-26T10:17:17.212Z,1.07
2017-06-26T10:19:45.412Z,0.80
2017-06-26T10:22:12.845Z,1.10
2017-06-26T10:24:41.052Z,1.13
2017-06-26T10:27:08.481Z,1.37
2017-06-26T10:29:36.680Z,0.80
2017-06-26T10:32:04.103Z,0.80
2017-06-26T10:34:32.325Z,1.10
2017-06-26T10:36:59.744Z,1.00
2017-06-26T10:39:27.943Z,0.97
2017-06-26T10:41:55.367Z,1.10
2017-06-26T10:44:25.796Z,1.10
2017-06-26T10:46:53.225Z,1.10
2017-06-26T10:49:20.660Z,1.17
2017-06-26T10:51:48.095Z,1.00
2017-06-26T10:54:15.620Z,0.80
2017-06-26T10:56:43.887Z,1.33
2017-06-26T10:59:12.095Z,1.17
2017-06-26T11:01:39.528Z,1.00
2017-06-26T11:04:07.713Z,1.20
2017-06-26T11:06:35.909Z,0.93
2017-06-26T11:09:03.424Z,1.00
2017-06-26T11:11:30.852Z,1.03
2017-06-26T11:13:58.272Z,0.90
2017-06-26T11:16:25.700Z,1.13
2017-06-26T11:18:53.896Z,1.00
2017-06-26T11:21:21.323Z,1.00
2017-06-26T11:23:49.523Z,1.07
2017-06-26T11:26:16.970Z,0.90
2017-06-26T11:28:44.380Z,0.90
2017-06-26T11:31:11.813Z,0.80
2017-06-26T11:33:39.245Z,1.20
2017-06-26T11:36:07.445Z,1.00
2017-06-26T11:38:34.863Z,0.87
2017-06-26T11:41:03.070Z,0.90
2017-06-26T11:43:30.495Z,0.93
2017-06-26T11:45:58.700Z,1.00
2017-06-26T11:48:26.134Z,1.20
2017-06-26T11:50:54.346Z,1.20
2017-06-26T11:53:21.773Z,1.20
2017-06-26T11:55:49.977Z,0.90
2017-06-26T11:58:17.511Z,0.97
2017-06-26T12:00:45.679Z,1.40
2017-06-26T12:03:13.108Z,0.90
2017-06-26T12:05:40.532Z,1.20
2017-06-26T12:08:07.965Z,1.00
2017-06-26T12:10:35.392Z,1.20
2017-06-26T12:13:03.664Z,1.07
2017-06-26T12:15:31.857Z,1.17
2017-06-26T12:17:59.287Z,1.40
2017-06-26T12:20:26.712Z,1.10
2017-06-26T12:22:54.159Z,1.20
2017-06-26T12:25:21.596Z,1.33
2017-06-26T12:27:49.024Z,0.97
2017-06-26T12:30:17.213Z,1.10
2017-06-26T12:32:44.644Z,1.20
2017-06-26T12:35:12.072Z,1.00
2017-06-26T12:37:39.506Z,1.10
2017-06-26T12:40:06.936Z,1.20
2017-06-26T12:42:35.143Z,1.00
2017-06-26T12:45:07.132Z,1.50
2017-06-26T12:47:34.562Z,1.00
2017-06-26T12:50:01.990Z,0.90
2017-06-26T12:52:29.432Z,1.30
2017-06-26T12:54:57.630Z,1.20
2017-06-26T12:57:25.054Z,1.37
2017-06-26T12:59:52.480Z,1.10
2017-06-26T13:02:19.909Z,1.20
2017-06-26T13:04:47.342Z,1.03
2017-06-26T13:07:15.532Z,1.33
2017-06-26T13:09:42.956Z,1.20
2017-06-26T13:12:11.152Z,1.17
2017-06-26T13:14:38.587Z,1.47
2017-06-26T13:17:06.020Z,1.20
2017-06-26T13:19:33.456Z,1.60
2017-06-26T13:22:00.957Z,1.03
2017-06-26T13:24:28.400Z,1.40
2017-06-26T13:26:55.972Z,1.10
2017-06-26T13:29:23.397Z,1.50
2017-06-26T13:31:50.820Z,1.30
2017-06-26T13:34:18.253Z,1.10
2017-06-26T13:36:46.444Z,1.07
2017-06-26T13:39:13.875Z,1.10
2017-06-26T13:41:42.075Z,1.17
2017-06-26T13:44:09.516Z,1.40
2017-06-26T13:46:37.712Z,1.43
2017-06-26T13:49:05.136Z,1.20
2017-06-26T13:51:32.564Z,1.20
2017-06-26T13:54:00.001Z,1.27
2017-06-26T13:56:27.436Z,1.10
2017-06-26T13:58:54.913Z,1.20
2017-06-26T14:01:22.323Z,1.20
2017-06-26T14:03:50.524Z,1.43
2017-06-26T14:06:17.947Z,1.40
2017-06-26T14:08:45.459Z,1.73
2017-06-26T14:11:12.889Z,1.20
2017-06-26T14:13:40.319Z,1.20
2017-06-26T14:16:07.753Z,1.33
2017-06-26T14:18:35.186Z,1.67
2017-06-26T14:21:02.618Z,1.60
2017-06-26T14:23:30.044Z,1.43
2017-06-26T14:25:57.472Z,1.33
2017-06-26T14:28:24.895Z,1.40
2017-06-26T14:30:52.332Z,1.70
2017-06-26T14:33:20.529Z,2.00
2017-06-26T14:35:47.969Z,1.70
2017-06-26T14:38:15.398Z,1.40
2017-06-26T14:40:42.836Z,1.70
2017-06-26T14:43:10.267Z,1.90
2017-06-26T14:45:37.688Z,1.40
2017-06-26T14:48:05.128Z,1.30
2017-06-26T14:50:32.580Z,1.30
2017-06-26T14:53:00.019Z,1.63
2017-06-26T14:55:27.449Z,1.17
2017-06-26T14:57:54.883Z,1.63
2017-06-26T15:00:22.316Z,1.50
2017-06-26T15:02:49.764Z,1.67
2017-06-26T15:05:17.188Z,1.63
2017-06-26T15:07:44.620Z,1.53
2017-06-26T15:10:12.050Z,1.20
2017-06-26T15:12:40.244Z,1.70
2017-06-26T15:15:07.668Z,1.83
2017-06-26T15:17:35.865Z,1.57
2017-06-26T15:20:03.296Z,1.70
2017-06-26T15:22:30.725Z,1.90
2017-06-26T15:24:58.162Z,2.00
2017-06-26T15:27:25.589Z,1.63
2017-06-26T15:29:53.012Z,1.70
2017-06-26T15:32:20.483Z,2.20
2017-06-26T15:34:47.913Z,1.57
2017-06-26T15:37:15.339Z,2.40
2017-06-26T15:39:42.771Z,1.93
2017-06-26T15:42:10.204Z,2.13
2017-06-26T15:44:37.628Z,2.10
2017-06-26T15:47:05.060Z,1.70
2017-06-26T15:49:32.497Z,2.07
2017-06-26T15:52:00.684Z,1.93
2017-06-26T15:54:28.132Z,2.10
2017-06-26T15:56:55.563Z,2.17
2017-06-26T15:59:23.024Z,2.10
2017-06-26T16:01:50.455Z,1.70
2017-06-26T16:04:17.891Z,1.93
2017-06-26T16:06:45.320Z,1.97
2017-06-26T16:09:12.752Z,2.13
2017-06-26T16:11:40.175Z,1.73
2017-06-26T16:14:07.609Z,2.13
2017-06-26T16:16:35.037Z,1.70
2017-06-26T16:19:02.470Z,1.50
2017-06-26T16:21:29.893Z,2.10
2017-06-26T16:23:58.562Z,2.40
2017-06-26T16:26:25.968Z,2.10
2017-06-26T16:28:53.411Z,2.37
2017-06-26T16:31:20.847Z,2.33
2017-06-26T16:33:48.273Z,2.50
2017-06-26T16:36:15.700Z,2.77
2017-06-26T16:38:43.130Z,2.30
2017-06-26T16:41:10.564Z,2.70
2017-06-26T16:43:37.985Z,2.10
2017-06-26T16:46:05.420Z,2.33
2017-06-26T16:48:33.622Z,2.90
2017-06-26T16:51:01.055Z,2.40
2017-06-26T16:53:28.484Z,2.63
2017-06-26T16:55:55.920Z,2.13
2017-06-26T16:58:23.352Z,3.27
2017-06-26T17:00:50.792Z,2.60
2017-06-26T17:03:18.221Z,2.17
2017-06-26T17:05:45.648Z,2.50
2017-06-26T17:08:13.080Z,3.00
2017-06-26T17:10:40.517Z,2.70
2017-06-26T17:13:08.726Z,3.00
2017-06-26T17:15:36.185Z,2.57
2017-06-26T17:18:03.612Z,3.07
2017-06-26T17:20:31.052Z,2.93
2017-06-26T17:22:59.244Z,2.67
2017-06-26T17:25:26.672Z,3.23
2017-06-26T17:27:54.104Z,2.70
2017-06-26T17:30:21.523Z,3.83
2017-06-26T17:32:48.956Z,3.97
2017-06-26T17:35:17.154Z,3.43
2017-06-26T17:37:44.587Z,3.40
2017-06-26T17:40:12.012Z,3.30
2017-06-26T17:42:39.452Z,3.93
2017-06-26T17:45:06.885Z,3.20
2017-06-26T17:47:34.330Z,3.90
2017-06-26T17:50:02.526Z,3.97
2017-06-26T17:52:29.956Z,4.00
2017-06-26T17:54:57.381Z,3.83
2017-06-26T17:57:24.811Z,4.10
2017-06-26T17:59:52.368Z,4.07
2017-06-26T18:02:19.802Z,3.80
2017-06-26T18:04:47.220Z,3.90
2017-06-26T18:07:15.473Z,4.63
2017-06-26T18:09:42.923Z,4.80
2017-06-26T18:12:10.340Z,4.17
2017-06-26T18:14:37.772Z,4.80
2017-06-26T18:17:05.996Z,4.50
2017-06-26T18:19:33.420Z,4.60
2017-06-26T18:22:00.844Z,5.27
2017-06-26T18:24:28.276Z,4.53
2017-06-26T18:26:55.703Z,4.70
2017-06-26T18:29:23.136Z,4.43
2017-06-26T18:31:50.680Z,3.90
2017-06-26T18:34:18.884Z,5.57
2017-06-26T18:36:46.312Z,5.10
2017-06-26T18:39:14.517Z,4.80
2017-06-26T18:41:41.940Z,4.73
2017-06-26T18:44:09.404Z,4.87
2017-06-26T18:46:37.608Z,4.50
2017-06-26T18:49:05.043Z,5.50
2017-06-26T18:51:33.256Z,4.47
2017-06-26T18:54:00.667Z,4.80
2017-06-26T18:56:28.863Z,5.20
2017-06-26T18:58:56.321Z,5.37
2017-06-26T19:01:23.904Z,4.90
2017-06-26T19:03:51.313Z,5.30
2017-06-26T19:06:19.515Z,6.33
2017-06-26T19:08:46.947Z,4.87
2017-06-26T19:11:15.149Z,6.30
2017-06-26T19:13:42.608Z,5.67
2017-06-26T19:16:10.033Z,5.50
2017-06-26T19:18:38.260Z,5.93
2017-06-26T19:21:05.768Z,5.57
2017-06-26T19:23:34.036Z,5.70
2017-06-26T19:26:01.469Z,5.73
2017-06-26T19:28:28.953Z,6.20
2017-06-26T19:30:56.387Z,5.77
2017-06-26T19:33:23.816Z,6.90
2017-06-26T19:35:51.244Z,6.43
2017-06-26T19:38:18.670Z,5.43
2017-06-26T19:40:46.135Z,6.60
2017-06-26T19:43:13.592Z,7.10
2017-06-26T19:45:41.797Z,7.00
2017-06-26T19:48:09.224Z,7.47
2017-06-26T19:50:37.524Z,6.73
2017-06-26T19:53:04.952Z,6.87
2017-06-26T19:55:33.701Z,7.33
2017-06-26T19:58:01.821Z,7.20
2017-06-26T20:00:29.491Z,6.67
2017-06-26T20:02:57.037Z,7.10
2017-06-26T20:05:25.248Z,7.30
2017-06-26T20:07:52.676Z,8.07
2017-06-26T20:10:20.894Z,7.40
2017-06-26T20:12:48.308Z,7.83
2017-06-26T20:15:16.505Z,8.53
2017-06-26T20:17:43.939Z,7.93
2017-06-26T20:20:12.136Z,7.97
2017-06-26T20:22:39.560Z,8.10
2017-06-26T20:25:07.756Z,7.73
2017-06-26T20:27:35.189Z,8.40
2017-06-26T20:30:03.380Z,8.47
2017-06-26T20:32:30.811Z,7.33
2017-06-26T20:34:58.237Z,7.70
2017-06-26T20:37:25.663Z,6.93
2017-06-26T20:39:53.088Z,6.80
2017-06-26T20:42:21.296Z,8.23
2017-06-26T20:44:48.723Z,8.40
2017-06-26T20:47:16.924Z,8.63
2017-06-26T20:49:44.347Z,8.07
2017-06-26T20:52:11.788Z,8.50
2017-06-26T20:54:39.303Z,8.40
2017-06-26T20:57:06.736Z,8.47
2017-06-26T20:59:34.168Z,9.07
2017-06-26T21:02:01.630Z,8.77
2017-06-26T21:04:29.059Z,8.60
2017-06-26T21:06:56.571Z,9.00
2017-06-26T21:09:23.996Z,9.27
2017-06-26T21:11:51.432Z,10.03
2017-06-26T21:14:18.872Z,9.60
2017-06-26T21:16:46.300Z,8.90
2017-06-26T21:19:13.731Z,9.10
2017-06-26T21:21:42.212Z,9.43
2017-06-26T21:24:10.414Z,9.20
2017-06-26T21:26:37.840Z,8.93
2017-06-26T21:29:05.284Z,9.47
2017-06-26T21:31:32.716Z,9.23
2017-06-26T21:34:00.148Z,9.37
2017-06-26T21:36:27.579Z,8.83
2017-06-26T21:38:55.780Z,9.50
2017-06-26T21:41:23.212Z,8.97
2017-06-26T21:43:51.486Z,9.70
2017-06-26T21:46:19.725Z,8.87
2017-06-26T21:48:47.163Z,9.63
2017-06-26T21:51:14.588Z,8.27
2017-06-26T21:53:42.019Z,9.00
2017-06-26T21:56:10.221Z,9.90
2017-06-26T21:58:37.657Z,10.10
2017-06-26T22:01:05.864Z,9.77
2017-06-26T22:03:33.316Z,10.57
2017-06-26T22:06:00.744Z,9.70
2017-06-26T22:08:28.949Z,10.00
2017-06-26T22:10:56.380Z,8.57
2017-06-26T22:13:24.576Z,9.70
2017-06-26T22:15:52.028Z,10.30
2017-06-26T22:18:19.470Z,10.00
2017-06-26T22:20:47.671Z,10.00
2017-06-26T22:23:15.100Z,9.47
2017-06-26T22:25:43.299Z,9.97
2017-06-26T22:28:10.731Z,10.40
2017-06-26T22:30:38.931Z,10.27
2017-06-26T22:33:06.365Z,10.00
2017-06-26T22:35:34.560Z,9.60
2017-06-26T22:38:01.993Z,10.17
2017-06-26T22:40:30.196Z,10.83
2017-06-26T22:42:57.628Z,9.30
2017-06-26T22:45:25.828Z,9.60
2017-06-26T22:47:53.260Z,9.93
2017-06-26T22:50:21.472Z,8.80
2017-06-26T22:52:48.901Z,10.70
2017-06-26T22:55:16.361Z,10.80
2017-06-26T22:57:43.793Z,9.77
2017-06-26T23:00:11.992Z,10.43
2017-06-26T23:02:39.424Z,9.40
2017-06-26T23:05:07.624Z,10.13
2017-06-26T23:07:35.061Z,9.27
2017-06-26T23:10:03.266Z,11.80
2017-06-26T23:12:30.704Z,10.50
2017-06-26T23:14:58.137Z,10.23
2017-06-26T23:17:25.575Z,10.30
2017-06-26T23:19:53.013Z,12.20
2017-06-26T23:22:20.466Z,10.50
2017-06-26T23:24:47.907Z,11.87
2017-06-26T23:27:15.397Z,11.53
2017-06-26T23:29:42.832Z,12.30
2017-06-26T23:32:10.272Z,11.60
2017-06-26T23:34:37.699Z,9.80
2017-06-26T23:37:05.140Z,11.67
2017-06-26T23:39:32.575Z,11.43
2017-06-26T23:42:00.017Z,12.57
2017-06-26T23:44:27.444Z,11.13
2017-06-26T23:46:54.887Z,10.87
2017-06-26T23:49:23.160Z,11.33
2017-06-26T23:51:51.391Z,10.40
2017-06-26T23:54:18.815Z,11.63
2017-06-26T23:56:46.253Z,11.07
2017-06-26T23:59:14.453Z,12.13
